EW0755 Weather Reports


Display with metric or nautical units.
time (UTC)temp
F
wind
direction
speed
MPH
gust
MPH
rain 1hr
in
rain 24hr
in
rain mn
in
humidity
%
barometer
mb
20200406022916 74 292 2.0 4.0 0.00 0.00 0.00 62 1007.5
20200406021917 75 292 3.0 5.0 0.00 0.00 0.00 60 1007.3
20200406020916 75 292 2.0 3.0 0.00 0.00 0.00 59 1007.3
20200406015916 75 292 3.0 6.0 0.00 0.00 0.00 58 1007.3
20200406014916 75 292 3.0 5.0 0.00 0.00 0.00 58 1007.2
20200406013916 76 292 5.0 7.0 0.00 0.00 0.00 57 1007.2
20200406012916 76 292 4.0 7.0 0.00 0.00 0.00 56 1007.1
20200406011917 77 292 5.0 8.0 0.00 0.00 0.00 54 1007.1
20200406010916 78 292 6.0 8.0 0.00 0.00 0.00 50 1007.1
20200406005916 79 292 6.0 10.0 0.00 0.00 0.00 47 1006.9
20200406004916 80 270 5.0 9.0 0.00 0.00 0.00 43 1006.8
20200406003916 81 292 6.0 10.0 0.00 0.00 0.00 41 1006.7
20200406002916 81 270 7.0 10.0 0.00 0.00 0.00 41 1006.8
20200406001916 81 270 8.0 12.0 0.00 0.00 0.00 41 1006.8
20200406000916 82 270 5.0 9.0 0.00 0.00 0.00 40 1006.8
20200405235916 82 270 8.0 12.0 0.00 0.00 0.00 35 1007.0
20200405234916 83 270 8.0 11.0 0.00 0.00 0.00 32 1007.1
20200405233916 84 270 9.0 12.0 0.00 0.00 0.00 33 1007.1
20200405232916 84 292 6.0 8.0 0.00 0.00 0.00 32 1006.9
20200405231916 85 270 7.0 9.0 0.00 0.00 0.00 34 1006.8
20200405230916 86 270 6.0 8.0 0.00 0.00 0.00 34 1006.8
20200405225916 85 270 8.0 10.0 0.00 0.00 0.00 35 1006.8
20200405224917 85 270 8.0 10.0 0.00 0.00 0.00 39 1006.9
20200405223916 85 270 6.0 8.0 0.00 0.00 0.00 40 1007.0
20200405222916 85 270 9.0 11.0 0.00 0.00 0.00 38 1007.1
20200405221916 85 270 6.0 9.0 0.00 0.00 0.00 40 1007.1
20200405063517 66 67 1.0 2.0 0.00 0.00 0.00 88 1008.3
20200405062517 67 45 1.0 2.0 0.00 0.00 0.00 89 1008.5
20200405061517 67 292 1.0 2.0 0.00 0.00 0.00 89 1008.6
20200405060517 67 292 2.0 2.0 0.00 0.00 0.00 90 1008.6
20200405055517 68 292 1.0 2.0 0.00 0.00 0.00 90 1008.7
20200405054517 68 292 1.0 1.0 0.00 0.00 0.00 90 1008.8
20200405053517 68 292 1.0 2.0 0.00 0.00 0.00 89 1008.9
20200405052517 68 292 1.0 2.0 0.00 0.00 0.00 89 1009.1
20200405051516 69 292 2.0 2.0 0.00 0.00 0.00 89 1009.0
20200405050516 69 292 1.0 2.0 0.00 0.00 0.00 89 1009.0
20200405045517 69 292 2.0 3.0 0.00 0.00 0.00 89 1009.1
20200405044516 69 315 1.0 2.0 0.00 0.00 0.00 88 1008.9
20200405043517 70 292 2.0 3.0 0.00 0.00 0.00 87 1009.1
20200405042517 70 292 2.0 2.0 0.00 0.00 0.00 86 1009.2
20200405041517 70 292 3.0 4.0 0.00 0.00 0.00 86 1009.1
20200405040516 70 292 4.0 6.0 0.00 0.00 0.00 85 1009.0
20200405035516 70 292 3.0 4.0 0.00 0.00 0.00 84 1008.9
20200405034517 70 292 3.0 4.0 0.00 0.00 0.00 84 1008.7
20200405033517 70 292 3.0 6.0 0.00 0.00 0.00 83 1008.7
20200405032516 70 315 1.0 2.0 0.00 0.00 0.00 82 1008.7
20200405031517 70 315 2.0 3.0 0.00 0.00 0.00 82 1008.5
20200405030517 70 292 1.0 2.0 0.00 0.00 0.00 80 1008.4
20200405025516 71 292 2.0 3.0 0.00 0.00 0.00 79 1008.6
20200405024516 71 315 2.0 3.0 0.00 0.00 0.00 76 1008.4
20200405023516 71 315 3.0 5.0 0.00 0.00 0.00 77 1008.4